Time;durP1;ratioP1;P1;durP2;ratioP2;P2;SDS_P1;SDS_P2;PMS_P1;PMS_P2;Temp;Humidity;BMP_temperature;BMP_pressure;BME280_temperature;BME280_humidity;BME280_pressure;Samples;Min_cycle;Max_cycle;Signal;HPM_P1;HPM_P2
2022/03/17 00:00:54;;;;;;;17.40;15.73;;;13.80;99.90;;;;;;5071045;28;20661;-75
2022/03/17 00:03:20;;;;;;;20.08;17.90;;;13.80;99.90;;;;;;5071273;28;20200;-75
2022/03/17 00:05:46;;;;;;;17.45;15.85;;;13.80;99.90;;;;;;5071492;28;20193;-75
2022/03/17 00:08:12;;;;;;;19.23;17.37;;;13.80;99.90;;;;;;5071544;28;20255;-74
2022/03/17 00:10:37;;;;;;;16.93;15.30;;;13.80;99.90;;;;;;5070954;28;20563;-75
2022/03/17 00:13:03;;;;;;;19.30;17.40;;;13.80;99.90;;;;;;5071359;28;20172;-74
2022/03/17 00:15:29;;;;;;;18.13;16.43;;;13.80;99.90;;;;;;5071467;28;20172;-75
2022/03/17 00:17:55;;;;;;;19.17;17.38;;;13.80;99.90;;;;;;5071377;28;20712;-75
2022/03/17 00:20:23;;;;;;;19.07;17.27;;;13.80;99.90;;;;;;5071123;28;20255;-74
2022/03/17 00:22:49;;;;;;;19.77;17.35;;;13.80;99.90;;;;;;5071391;28;20614;-74
2022/03/17 00:25:15;;;;;;;20.40;18.42;;;13.80;99.90;;;;;;5072709;28;20192;-74
2022/03/17 00:27:42;;;;;;;18.65;16.75;;;13.70;99.90;;;;;;5075464;28;20160;-75
2022/03/17 00:30:08;;;;;;;18.10;16.40;;;13.80;99.90;;;;;;5074906;28;20659;-75
2022/03/17 00:32:34;;;;;;;20.40;18.30;;;13.70;99.90;;;;;;5072317;28;20782;-75
2022/03/17 00:37:46;;;;;;;17.10;15.50;;;13.70;99.90;;;;;;5073856;28;20259;-75
2022/03/17 00:40:13;;;;;;;15.90;14.40;;;13.70;99.90;;;;;;5074815;28;20168;-74
2022/03/17 00:42:39;;;;;;;19.05;17.20;;;13.70;99.90;;;;;;5075223;28;20192;-74
2022/03/17 00:45:05;;;;;;;16.63;14.80;;;13.70;99.90;;;;;;5075027;28;20682;-74
2022/03/17 00:47:31;;;;;;;16.73;15.05;;;13.70;99.90;;;;;;5075092;28;20203;-74
2022/03/17 00:49:57;;;;;;;19.77;17.90;;;13.70;99.90;;;;;;5074890;28;20196;-75
2022/03/17 00:52:22;;;;;;;17.40;15.80;;;13.60;99.90;;;;;;5075149;28;20601;-75
2022/03/17 00:54:48;;;;;;;17.53;15.63;;;13.70;99.90;;;;;;5075046;28;20196;-75
2022/03/17 00:57:14;;;;;;;19.70;17.90;;;13.60;99.90;;;;;;5074975;28;20173;-75
2022/03/17 00:59:40;;;;;;;20.67;18.47;;;13.60;99.90;;;;;;5074059;28;20164;-75
2022/03/17 01:02:07;;;;;;;18.97;17.10;;;13.50;99.90;;;;;;5074514;28;20721;-75
2022/03/17 01:04:34;;;;;;;20.77;18.67;;;13.60;99.90;;;;;;5074705;28;20192;-75
2022/03/17 01:07:00;;;;;;;18.17;16.38;;;13.50;99.90;;;;;;5074800;28;20165;-75
2022/03/17 01:09:28;;;;;;;17.40;15.65;;;13.60;99.90;;;;;;5074798;28;20190;-75
2022/03/17 01:11:54;;;;;;;15.85;14.25;;;13.60;99.90;;;;;;5078840;28;20190;-75
2022/03/17 01:14:20;;;;;;;17.48;15.77;;;13.60;99.90;;;;;;5074494;28;20598;-75
2022/03/17 01:16:46;;;;;;;20.20;18.20;;;13.60;99.90;;;;;;5074522;28;20198;-74
2022/03/17 01:19:12;;;;;;;18.67;16.80;;;13.60;99.90;;;;;;5074423;28;20175;-74
2022/03/17 01:21:37;;;;;;;18.23;15.50;;;13.60;99.90;;;;;;5073987;28;20161;-74
2022/03/17 01:24:03;;;;;;;19.63;17.73;;;13.60;99.90;;;;;;5074112;28;20207;-74
2022/03/17 01:26:30;;;;;;;18.17;16.30;;;13.60;99.90;;;;;;5074371;28;20168;-74
2022/03/17 01:28:55;;;;;;;17.38;15.73;;;13.50;99.90;;;;;;5065869;28;20589;-74
2022/03/17 01:31:24;;;;;;;17.80;15.50;;;13.50;99.90;;;;;;5073957;28;20169;-75
2022/03/17 01:33:50;;;;;;;18.27;16.48;;;13.50;99.90;;;;;;5074158;28;20196;-75
2022/03/17 01:36:16;;;;;;;19.73;17.83;;;13.50;99.90;;;;;;5073030;28;20557;-75
2022/03/17 01:38:42;;;;;;;19.00;17.10;;;13.50;99.90;;;;;;5072031;28;20172;-75
2022/03/17 01:41:08;;;;;;;18.33;16.53;;;13.40;99.90;;;;;;5073843;28;20981;-74
2022/03/17 01:43:34;;;;;;;20.60;18.45;;;13.40;99.90;;;;;;5070457;28;21225;-75
2022/03/17 01:46:00;;;;;;;21.17;18.70;;;13.40;99.90;;;;;;5074046;28;20206;-75
2022/03/17 01:48:26;;;;;;;19.73;17.83;;;13.40;99.90;;;;;;5073935;28;20180;-75
2022/03/17 01:50:53;;;;;;;21.02;18.98;;;13.40;99.90;;;;;;5073623;28;20160;-74
2022/03/17 01:53:21;;;;;;;17.93;16.13;;;13.40;99.90;;;;;;5073793;28;20596;-75
2022/03/17 01:55:47;;;;;;;18.70;16.85;;;13.40;99.90;;;;;;5072500;28;20577;-75
2022/03/17 01:58:12;;;;;;;18.63;16.87;;;13.40;99.90;;;;;;5073795;28;20177;-75
2022/03/17 02:00:40;;;;;;;19.43;17.50;;;13.40;99.90;;;;;;5070785;28;20268;-75
2022/03/17 02:03:06;;;;;;;18.05;16.35;;;13.40;99.90;;;;;;5050207;28;20253;-75
2022/03/17 02:05:34;;;;;;;20.80;18.63;;;13.40;99.90;;;;;;5079840;28;20172;-75
2022/03/17 02:08:01;;;;;;;19.48;17.63;;;13.40;99.90;;;;;;5085354;28;21072;-75
2022/03/17 02:13:08;;;;;;;19.00;17.30;;;13.40;99.90;;;;;;5076812;28;20168;-75
2022/03/17 02:13:13;;;;;;;18.45;16.65;;;13.40;99.90;;;;;;5070477;28;20168;-75
2022/03/17 02:15:40;;;;;;;18.90;17.10;;;13.40;99.90;;;;;;5078187;28;20251;-75
2022/03/17 02:18:06;;;;;;;18.65;16.95;;;13.40;99.90;;;;;;5077905;28;20180;-75
2022/03/17 02:20:33;;;;;;;20.20;18.20;;;13.40;99.90;;;;;;5074018;28;20168;-75
2022/03/17 02:25:57;;;;;;;18.58;16.77;;;13.30;99.90;;;;;;5081204;28;20251;-74
2022/03/17 02:28:25;;;;;;;20.27;18.27;;;13.30;99.90;;;;;;5077790;28;20176;-75
2022/03/17 02:30:55;;;;;;;19.73;17.92;;;13.30;99.90;;;;;;5072880;28;20161;-74
2022/03/17 02:33:22;;;;;;;20.50;18.40;;;13.30;99.90;;;;;;5068382;28;20188;-74
2022/03/17 02:35:49;;;;;;;21.58;19.48;;;13.30;99.90;;;;;;5073078;28;20175;-75
2022/03/17 02:38:16;;;;;;;18.80;17.10;;;13.30;99.90;;;;;;5073286;28;20204;-75
2022/03/17 02:40:45;;;;;;;21.30;19.23;;;13.30;99.90;;;;;;5072787;28;20165;-75
2022/03/17 02:43:14;;;;;;;20.90;18.80;;;13.30;99.90;;;;;;5072864;28;20196;-74
2022/03/17 02:45:42;;;;;;;18.67;16.80;;;13.30;99.90;;;;;;5072942;28;20195;-75
2022/03/17 02:48:08;;;;;;;20.45;18.00;;;13.30;99.90;;;;;;5072633;28;20175;-75
2022/03/17 02:50:35;;;;;;;17.55;15.65;;;13.30;99.90;;;;;;5072467;28;20532;-75
2022/03/17 02:53:09;;;;;;;19.52;17.63;;;13.30;99.90;;;;;;5072801;28;20171;-75
2022/03/17 02:55:36;;;;;;;21.40;19.27;;;13.30;99.90;;;;;;5072759;28;20234;-75
2022/03/17 02:58:04;;;;;;;19.88;17.98;;;13.30;99.90;;;;;;5072770;28;20173;-75
2022/03/17 03:00:29;;;;;;;20.65;18.45;;;13.30;99.90;;;;;;5072347;28;20191;-75
2022/03/17 03:02:55;;;;;;;20.63;18.63;;;13.30;99.90;;;;;;5076976;28;20204;-75
2022/03/17 03:05:22;;;;;;;21.23;19.13;;;13.30;99.90;;;;;;5072475;28;20171;-75
2022/03/17 03:07:49;;;;;;;23.35;21.15;;;13.30;99.90;;;;;;5072552;28;20214;-75
2022/03/17 03:10:15;;;;;;;20.63;18.60;;;13.30;99.90;;;;;;5072043;28;20168;-75
2022/03/17 03:12:41;;;;;;;21.67;19.57;;;13.30;99.90;;;;;;5070153;28;21211;-75
2022/03/17 03:15:07;;;;;;;20.63;18.45;;;13.30;99.90;;;;;;5065367;28;21197;-75
2022/03/17 03:17:33;;;;;;;21.08;19.05;;;13.30;99.90;;;;;;5072267;28;20168;-74
2022/03/17 03:19:58;;;;;;;20.23;18.23;;;13.30;99.90;;;;;;5072041;28;20188;-74
2022/03/17 03:22:29;;;;;;;20.97;18.97;;;13.40;99.90;;;;;;5072150;28;20613;-74
2022/03/17 03:24:56;;;;;;;23.00;20.90;;;13.30;99.90;;;;;;5071892;28;20614;-74
2022/03/17 03:27:27;;;;;;;19.02;17.23;;;13.30;99.90;;;;;;5072003;28;20168;-74
2022/03/17 03:29:55;;;;;;;22.58;20.38;;;13.40;99.90;;;;;;5071909;28;20161;-74
2022/03/17 03:32:20;;;;;;;23.02;20.40;;;13.30;99.90;;;;;;5072032;28;20251;-74
2022/03/17 03:34:46;;;;;;;23.60;21.20;;;13.30;99.90;;;;;;5071953;28;20322;-75
2022/03/17 03:37:24;;;;;;;22.50;20.20;;;13.40;99.90;;;;;;5075827;22;20579;-75
2022/03/17 03:39:55;;;;;;;19.40;17.63;;;13.30;99.90;;;;;;5055795;28;20662;-76
2022/03/17 03:42:23;;;;;;;21.70;19.60;;;13.40;99.90;;;;;;5072021;28;20196;-76
2022/03/17 03:44:51;;;;;;;22.65;20.35;;;13.40;99.90;;;;;;5071849;28;20508;-76
2022/03/17 03:47:17;;;;;;;21.08;19.08;;;13.40;99.90;;;;;;5071877;28;20271;-75
2022/03/17 03:49:44;;;;;;;21.67;19.50;;;13.40;99.90;;;;;;5070198;28;20180;-76
2022/03/17 03:52:12;;;;;;;23.08;20.88;;;13.40;99.90;;;;;;5071833;28;20204;-74
2022/03/17 03:54:38;;;;;;;21.00;18.90;;;13.30;99.90;;;;;;5071688;28;20169;-75
2022/03/17 03:57:05;;;;;;;21.85;19.65;;;13.30;99.90;;;;;;5071739;28;20554;-76
2022/03/17 03:59:31;;;;;;;22.50;20.25;;;13.30;99.90;;;;;;5070809;28;20183;-76
2022/03/17 04:02:00;;;;;;;25.33;22.67;;;13.30;99.90;;;;;;5071204;28;20690;-76
2022/03/17 04:04:27;;;;;;;25.65;23.10;;;13.30;99.90;;;;;;5070415;28;20196;-76
2022/03/17 04:06:58;;;;;;;24.48;22.17;;;13.30;99.90;;;;;;5072146;28;20188;-76
2022/03/17 04:09:26;;;;;;;22.30;20.17;;;13.30;99.90;;;;;;5070453;28;20164;-76
2022/03/17 04:11:52;;;;;;;21.63;19.63;;;13.30;99.90;;;;;;5071312;28;20689;-76
2022/03/17 04:14:19;;;;;;;24.40;21.95;;;13.30;99.90;;;;;;5071573;28;20217;-76
2022/03/17 04:16:46;;;;;;;23.88;21.58;;;13.30;99.90;;;;;;5070356;28;20233;-76
2022/03/17 04:19:18;;;;;;;21.30;19.30;;;13.20;99.90;;;;;;5071361;28;20624;-76
2022/03/17 04:21:45;;;;;;;23.85;20.20;;;13.20;99.90;;;;;;5069930;28;20585;-76
2022/03/17 04:24:11;;;;;;;24.38;22.02;;;13.20;99.90;;;;;;5071558;28;20242;-76
2022/03/17 04:26:37;;;;;;;25.02;22.65;;;13.20;99.90;;;;;;5071244;28;20275;-76
2022/03/17 04:29:02;;;;;;;23.00;20.70;;;13.20;99.90;;;;;;5071662;28;20247;-76
2022/03/17 04:31:29;;;;;;;21.17;19.17;;;13.10;99.90;;;;;;5070975;28;21078;-76
2022/03/17 04:33:55;;;;;;;21.92;19.73;;;13.10;99.90;;;;;;5053432;28;20172;-76
2022/03/17 04:36:22;;;;;;;21.38;19.35;;;13.10;99.90;;;;;;5070966;28;20203;-76
2022/03/17 04:38:48;;;;;;;22.20;19.92;;;13.10;99.90;;;;;;5063066;28;20173;-76
2022/03/17 04:41:14;;;;;;;21.58;19.40;;;13.10;99.90;;;;;;5069854;28;20182;-76
2022/03/17 04:43:40;;;;;;;20.93;18.87;;;13.10;99.90;;;;;;5072038;28;20274;-75
2022/03/17 04:46:09;;;;;;;21.60;19.50;;;13.10;99.90;;;;;;5070221;28;20960;-75
2022/03/17 04:48:36;;;;;;;21.83;19.73;;;13.10;99.90;;;;;;5071711;28;20897;-75
2022/03/17 04:51:02;;;;;;;21.70;19.52;;;13.10;99.90;;;;;;5071912;28;20173;-75
2022/03/17 04:53:29;;;;;;;23.83;21.55;;;13.10;99.90;;;;;;5072944;28;20173;-75
2022/03/17 04:56:11;;;;;;;23.45;21.17;;;13.10;99.90;;;;;;5073421;28;20279;-76
2022/03/17 04:58:38;;;;;;;22.77;20.48;;;13.10;99.90;;;;;;5070572;28;20271;-75
2022/03/17 05:01:05;;;;;;;23.77;21.48;;;13.00;99.90;;;;;;5069435;28;20648;-75
2022/03/17 05:03:32;;;;;;;24.38;21.88;;;12.90;99.90;;;;;;5070790;28;20295;-75
2022/03/17 05:05:58;;;;;;;23.23;20.98;;;12.90;99.90;;;;;;5071057;28;20164;-75
2022/03/17 05:08:24;;;;;;;27.35;22.75;;;12.80;99.90;;;;;;5071066;28;20247;-75
2022/03/17 05:10:52;;;;;;;25.13;22.70;;;12.80;99.90;;;;;;5071354;28;20266;-75
2022/03/17 05:13:20;;;;;;;24.48;22.10;;;12.70;99.90;;;;;;5073487;28;20204;-75
2022/03/17 05:15:47;;;;;;;26.30;23.58;;;12.60;99.90;;;;;;5074510;28;20165;-75
2022/03/17 05:18:13;;;;;;;24.85;22.35;;;12.60;99.90;;;;;;5073264;28;20512;-75
2022/03/17 05:20:43;;;;;;;23.95;21.50;;;12.60;99.90;;;;;;5074611;28;20168;-75
2022/03/17 05:23:12;;;;;;;24.17;21.77;;;12.50;99.90;;;;;;5073106;28;20611;-75
2022/03/17 05:25:42;;;;;;;25.52;22.90;;;12.50;99.90;;;;;;5073246;28;20222;-75
2022/03/17 05:28:09;;;;;;;25.60;22.80;;;12.50;99.90;;;;;;5074496;28;20685;-75
2022/03/17 05:30:36;;;;;;;26.52;23.83;;;12.50;99.90;;;;;;5074130;28;20176;-75
2022/03/17 05:33:03;;;;;;;25.55;22.92;;;12.50;99.90;;;;;;5074416;28;20196;-75
2022/03/17 05:35:29;;;;;;;25.48;22.75;;;12.50;99.90;;;;;;5073154;28;20180;-75
2022/03/17 05:37:56;;;;;;;27.38;24.48;;;12.50;99.90;;;;;;5074108;28;20200;-75
2022/03/17 05:40:23;;;;;;;26.33;23.55;;;12.50;99.90;;;;;;5072735;28;20164;-75
2022/03/17 05:42:54;;;;;;;27.02;24.13;;;12.40;99.90;;;;;;5072781;28;20582;-75
2022/03/17 05:45:21;;;;;;;26.52;23.63;;;12.40;99.90;;;;;;5074204;28;20179;-75
2022/03/17 05:47:49;;;;;;;27.73;24.88;;;12.40;99.90;;;;;;5072884;28;20623;-75
2022/03/17 05:50:18;;;;;;;27.05;24.30;;;12.40;99.90;;;;;;5073655;28;20612;-75
2022/03/17 05:52:44;;;;;;;27.85;24.95;;;12.40;99.90;;;;;;5074042;28;20199;-75
2022/03/17 05:55:12;;;;;;;28.57;25.57;;;12.40;99.90;;;;;;5074100;28;20250;-75
2022/03/17 05:57:39;;;;;;;26.65;23.85;;;12.40;99.90;;;;;;5073832;28;20597;-75
2022/03/17 06:00:07;;;;;;;29.40;24.65;;;12.40;99.90;;;;;;5073565;28;20298;-75
2022/03/17 06:02:39;;;;;;;27.83;25.02;;;12.40;99.90;;;;;;5073603;28;20195;-76
2022/03/17 06:05:07;;;;;;;22.80;20.40;;;12.40;99.90;;;;;;5073827;28;20167;-75
2022/03/17 06:07:41;;;;;;;19.17;16.80;;;12.40;99.90;;;;;;5072319;28;20184;-75
2022/03/17 06:10:09;;;;;;;21.30;17.80;;;12.40;99.90;;;;;;5073366;28;20181;-75
2022/03/17 06:12:35;;;;;;;17.30;15.57;;;12.40;99.90;;;;;;5073636;28;20169;-75
2022/03/17 06:15:02;;;;;;;18.20;16.30;;;12.30;99.90;;;;;;5073561;28;20640;-75
2022/03/17 06:17:49;;;;;;;18.25;16.27;;;12.30;99.90;;;;;;5073394;28;20594;-75
2022/03/17 06:20:17;;;;;;;16.63;14.93;;;12.30;99.90;;;;;;5071461;28;20730;-76
2022/03/17 06:22:48;;;;;;;16.15;14.43;;;12.30;99.90;;;;;;5072398;28;20595;-75
2022/03/17 06:25:18;;;;;;;16.92;15.23;;;12.20;99.90;;;;;;5073286;28;20247;-76
2022/03/17 06:27:46;;;;;;;16.25;14.65;;;12.20;99.90;;;;;;5073234;28;20188;-76
2022/03/17 06:30:16;;;;;;;17.20;15.50;;;12.20;99.90;;;;;;5072788;28;20504;-76
2022/03/17 06:32:42;;;;;;;16.00;14.40;;;12.10;99.90;;;;;;5073240;28;20208;-76
2022/03/17 06:35:15;;;;;;;19.40;16.40;;;12.10;99.90;;;;;;5074200;28;20218;-76
2022/03/17 06:37:42;;;;;;;20.05;17.92;;;12.10;99.90;;;;;;5071684;28;21107;-77
2022/03/17 06:40:08;;;;;;;19.52;16.88;;;12.00;99.90;;;;;;5071519;28;20176;-77
2022/03/17 06:42:34;;;;;;;20.17;17.73;;;12.00;99.90;;;;;;5070216;28;20576;-76
2022/03/17 06:45:01;;;;;;;23.35;20.83;;;12.00;99.90;;;;;;5047461;28;20172;-76
2022/03/17 06:47:26;;;;;;;18.83;16.92;;;11.90;99.90;;;;;;5046321;28;20288;-77
2022/03/17 06:49:52;;;;;;;19.50;17.50;;;11.90;99.90;;;;;;5051114;28;20623;-77
2022/03/17 06:52:18;;;;;;;19.53;17.50;;;11.90;99.90;;;;;;5051219;28;20539;-77
2022/03/17 06:54:44;;;;;;;20.00;17.50;;;11.90;99.90;;;;;;5052697;28;20169;-77
2022/03/17 06:57:15;;;;;;;24.73;19.25;;;11.80;99.90;;;;;;5051254;28;20184;-76
2022/03/17 06:59:41;;;;;;;18.48;16.30;;;11.80;99.90;;;;;;5049477;28;20207;-76
2022/03/17 07:02:06;;;;;;;19.07;17.07;;;11.70;99.90;;;;;;5051780;28;20165;-75
2022/03/17 07:04:32;;;;;;;18.63;16.63;;;11.70;99.90;;;;;;5050922;28;20177;-75
2022/03/17 07:06:59;;;;;;;18.17;16.27;;;11.70;99.90;;;;;;5052014;28;20183;-75
2022/03/17 07:09:25;;;;;;;16.50;14.65;;;11.70;99.90;;;;;;5051991;28;20248;-76
2022/03/17 07:11:51;;;;;;;14.90;13.10;;;11.60;99.90;;;;;;5055810;28;20219;-76
2022/03/17 07:14:16;;;;;;;15.93;14.33;;;11.60;99.90;;;;;;5052090;28;20579;-76
2022/03/17 07:16:43;;;;;;;14.70;12.30;;;11.60;99.90;;;;;;5051951;28;20610;-75
2022/03/17 07:19:09;;;;;;;16.08;13.25;;;11.60;99.90;;;;;;5050526;28;20187;-75
2022/03/17 07:21:35;;;;;;;13.10;11.63;;;11.60;99.90;;;;;;5051261;28;20201;-77
2022/03/17 07:24:01;;;;;;;12.20;11.00;;;11.60;99.90;;;;;;5051585;28;20623;-76
2022/03/17 07:26:27;;;;;;;13.27;11.07;;;11.50;99.90;;;;;;5050362;28;20197;-76
2022/03/17 07:28:54;;;;;;;11.90;9.60;;;11.50;99.90;;;;;;5051793;28;20180;-77
2022/03/17 07:31:21;;;;;;;12.32;10.90;;;11.50;99.90;;;;;;5051052;28;20537;-76
2022/03/17 07:33:49;;;;;;;15.70;12.48;;;11.40;99.90;;;;;;5050452;28;20235;-77
2022/03/17 07:36:15;;;;;;;15.15;12.55;;;11.40;99.90;;;;;;5051591;28;20281;-76
2022/03/17 07:38:41;;;;;;;13.35;11.95;;;11.40;99.90;;;;;;5050672;28;20169;-76
2022/03/17 07:41:07;;;;;;;13.07;11.17;;;11.40;99.90;;;;;;5051219;28;20797;-75
2022/03/17 07:43:32;;;;;;;13.97;12.17;;;11.40;99.90;;;;;;5051527;28;20192;-76
2022/03/17 07:46:11;;;;;;;13.50;10.80;;;11.40;99.90;;;;;;5050158;28;21060;-75
2022/03/17 07:48:56;;;;;;;12.38;11.07;;;11.40;99.90;;;;;;5053584;28;20275;-76
2022/03/17 07:51:30;;;;;;;17.08;11.68;;;11.40;99.90;;;;;;5049627;28;20543;-75
2022/03/17 07:53:56;;;;;;;14.43;12.48;;;11.40;99.90;;;;;;5051229;28;20169;-75
2022/03/17 07:56:22;;;;;;;11.93;10.60;;;11.40;99.90;;;;;;5051335;28;20185;-75
2022/03/17 07:58:48;;;;;;;11.77;10.40;;;11.50;99.90;;;;;;5051393;28;20177;-75
2022/03/17 08:01:15;;;;;;;11.43;10.23;;;11.50;99.90;;;;;;5050590;28;20584;-75
2022/03/17 08:03:41;;;;;;;9.10;8.30;;;11.50;99.90;;;;;;5050318;28;20207;-75
2022/03/17 08:06:06;;;;;;;8.40;7.60;;;11.60;99.90;;;;;;5051167;28;20193;-75
2022/03/17 08:08:34;;;;;;;7.70;6.97;;;11.60;99.90;;;;;;5051213;28;20165;-74
2022/03/17 08:11:00;;;;;;;7.47;6.47;;;11.70;99.90;;;;;;5050970;28;20556;-75
2022/03/17 08:13:26;;;;;;;11.15;7.10;;;11.70;99.90;;;;;;5051368;28;20177;-76
2022/03/17 08:15:54;;;;;;;11.70;7.83;;;11.60;99.90;;;;;;5049907;28;20849;-75
2022/03/17 08:18:20;;;;;;;8.75;6.40;;;11.60;99.90;;;;;;5049940;28;20622;-75
2022/03/17 08:20:46;;;;;;;11.52;8.20;;;11.60;99.90;;;;;;5050845;28;20197;-75
2022/03/17 08:23:15;;;;;;;7.67;6.87;;;11.60;99.90;;;;;;5051311;28;20301;-76
2022/03/17 08:25:42;;;;;;;9.95;8.98;;;11.60;99.90;;;;;;5052436;28;20176;-76
2022/03/17 08:28:08;;;;;;;8.07;7.20;;;11.60;99.90;;;;;;5049947;28;20173;-77
2022/03/17 08:30:36;;;;;;;9.60;8.63;;;11.50;99.90;;;;;;5049116;28;20583;-74
2022/03/17 08:33:02;;;;;;;8.93;8.13;;;11.50;99.90;;;;;;5051168;28;20169;-76
2022/03/17 08:35:28;;;;;;;10.55;9.32;;;11.60;99.90;;;;;;5051135;28;20165;-76
2022/03/17 08:37:53;;;;;;;11.23;9.77;;;11.60;99.90;;;;;;5050962;28;20196;-77
2022/03/17 08:40:19;;;;;;;9.93;8.80;;;11.60;99.90;;;;;;5050866;28;20169;-77
2022/03/17 08:42:46;;;;;;;8.77;7.97;;;11.60;99.90;;;;;;5050873;28;20615;-78
2022/03/17 08:50:55;;;;;;;17.17;7.88;;;11.70;99.90;;;;;;5047510;28;20165;-75
2022/03/17 08:53:21;;;;;;;8.30;5.57;;;11.70;99.90;;;;;;5053945;28;20177;-76
2022/03/17 08:55:47;;;;;;;5.20;4.57;;;11.70;99.90;;;;;;5037245;28;20904;-75
2022/03/17 08:58:16;;;;;;;8.18;5.07;;;11.70;99.90;;;;;;5054339;28;20216;-76
2022/03/17 09:00:43;;;;;;;5.63;4.35;;;11.70;99.90;;;;;;5053334;28;20535;-75
2022/03/17 09:03:09;;;;;;;6.80;4.10;;;11.70;99.90;;;;;;5056912;28;20246;-75
2022/03/17 09:05:36;;;;;;;6.13;4.55;;;11.70;99.90;;;;;;5059669;28;20192;-77
2022/03/17 09:08:04;;;;;;;4.32;3.63;;;11.70;99.90;;;;;;5068986;28;20237;-78
2022/03/17 09:10:31;;;;;;;8.52;4.63;;;11.70;99.90;;;;;;5073559;28;20165;-78
2022/03/17 09:12:57;;;;;;;5.47;4.97;;;11.70;99.90;;;;;;5077213;28;20241;-77
2022/03/17 09:15:24;;;;;;;4.80;4.30;;;11.70;99.90;;;;;;5073888;28;20173;-78
2022/03/17 09:17:51;;;;;;;6.13;5.32;;;11.70;99.90;;;;;;5040207;28;20208;-78
2022/03/17 09:20:17;;;;;;;5.07;3.75;;;11.70;99.90;;;;;;5069023;28;20682;-77
2022/03/17 09:22:45;;;;;;;6.05;3.67;;;11.70;99.90;;;;;;5055205;28;20250;-78
2022/03/17 09:25:11;;;;;;;3.95;3.50;;;11.70;99.90;;;;;;5055432;28;20188;-78
2022/03/17 09:27:37;;;;;;;5.68;3.97;;;11.70;99.90;;;;;;5053938;28;20189;-78
2022/03/17 09:30:04;;;;;;;3.53;3.22;;;11.60;99.90;;;;;;5055214;28;20160;-78
2022/03/17 09:32:30;;;;;;;3.30;2.90;;;11.60;99.90;;;;;;5055371;28;20188;-77
2022/03/17 09:34:57;;;;;;;4.90;3.40;;;11.60;99.90;;;;;;5055289;28;20575;-77
2022/03/17 09:37:23;;;;;;;3.97;3.05;;;11.60;99.90;;;;;;5054309;28;20213;-78
2022/03/17 09:39:49;;;;;;;5.93;2.60;;;11.60;99.90;;;;;;5058528;28;20199;-77
2022/03/17 09:42:18;;;;;;;8.57;2.75;;;11.60;99.90;;;;;;5054571;28;20173;-78
2022/03/17 09:44:46;;;;;;;4.47;2.45;;;11.60;99.90;;;;;;5052608;28;20641;-78
2022/03/17 09:47:16;;;;;;;4.15;2.60;;;11.60;99.90;;;;;;5047986;28;20202;-76
2022/03/17 09:49:43;;;;;;;5.10;2.90;;;11.60;99.90;;;;;;5053413;28;20267;-76
2022/03/17 09:52:13;;;;;;;3.75;2.65;;;11.70;99.90;;;;;;5053928;28;20252;-78
2022/03/17 09:54:42;;;;;;;5.40;3.03;;;11.70;99.90;;;;;;5050485;28;20319;-75
2022/03/17 09:57:09;;;;;;;4.30;2.78;;;11.80;99.90;;;;;;5044348;28;20605;-78
2022/03/17 09:59:35;;;;;;;4.57;2.50;;;11.80;99.90;;;;;;5041376;28;20166;-78
2022/03/17 10:02:02;;;;;;;4.68;2.80;;;11.90;99.90;;;;;;5044131;28;20211;-78
2022/03/17 10:04:32;;;;;;;3.95;2.50;;;11.90;99.90;;;;;;5053313;28;20169;-78
2022/03/17 10:06:59;;;;;;;5.72;2.95;;;12.00;99.90;;;;;;5053514;28;20281;-76
2022/03/17 10:09:28;;;;;;;4.55;2.30;;;12.00;99.90;;;;;;5051999;28;20260;-76
2022/03/17 10:12:02;;;;;;;6.28;3.03;;;12.10;99.90;;;;;;5039368;28;20658;-78
2022/03/17 10:14:39;;;;;;;3.72;1.77;;;12.20;99.90;;;;;;5052043;28;20325;-76
2022/03/17 10:17:07;;;;;;;7.22;2.28;;;12.30;99.90;;;;;;5055909;28;20180;-76
2022/03/17 10:19:34;;;;;;;3.65;2.45;;;12.40;99.90;;;;;;5063220;28;20218;-79
2022/03/17 10:22:12;;;;;;;5.78;3.40;;;12.50;99.90;;;;;;5066705;28;20168;-76
2022/03/17 10:24:49;;;;;;;5.72;3.13;;;12.60;99.90;;;;;;5050290;28;20177;-76
2022/03/17 10:27:15;;;;;;;5.68;4.03;;;12.70;99.90;;;;;;5051685;28;20185;-75
2022/03/17 10:29:40;;;;;;;4.37;3.07;;;12.90;99.90;;;;;;5062066;28;20220;-76
2022/03/17 10:32:09;;;;;;;5.77;3.07;;;13.00;99.90;;;;;;5057186;28;20194;-75
2022/03/17 10:34:51;;;;;;;5.22;3.65;;;13.10;99.90;;;;;;5066008;28;20169;-76
2022/03/17 10:37:19;;;;;;;5.47;3.47;;;13.10;99.90;;;;;;5049660;28;20207;-74
2022/03/17 10:39:53;;;;;;;6.22;2.60;;;13.30;99.90;;;;;;5062542;28;20225;-76
2022/03/17 10:42:27;;;;;;;4.43;3.47;;;13.30;99.90;;;;;;5060373;28;20222;-77
2022/03/17 10:44:56;;;;;;;3.63;2.28;;;13.40;99.90;;;;;;5044829;28;20649;-76
2022/03/17 10:47:23;;;;;;;3.25;1.80;;;13.50;99.90;;;;;;5053194;28;20278;-74
2022/03/17 10:50:01;;;;;;;2.85;1.83;;;13.50;99.90;;;;;;5052028;28;20173;-77
2022/03/17 10:52:52;;;;;;;5.15;1.98;;;13.50;99.90;;;;;;5052743;28;20248;-74
2022/03/17 10:55:27;;;;;;;4.38;2.00;;;13.50;99.90;;;;;;5056090;28;20185;-75
2022/03/17 10:58:11;;;;;;;3.00;1.60;;;13.50;99.90;;;;;;5050638;28;21123;-75
2022/03/17 11:04:46;;;;;;;5.10;1.52;;;13.40;99.90;;;;;;5014540;28;20190;-77
2022/03/17 11:07:14;;;;;;;6.85;1.20;;;13.50;99.90;;;;;;5051931;28;20239;-77
2022/03/17 11:09:44;;;;;;;1.95;0.90;;;13.40;99.90;;;;;;5051711;28;20532;-76
2022/03/17 11:12:20;;;;;;;3.25;1.13;;;13.50;99.90;;;;;;5052147;28;20218;-76
2022/03/17 11:14:49;;;;;;;3.05;0.90;;;13.40;99.90;;;;;;5034250;28;20269;-76
2022/03/17 11:17:21;;;;;;;4.25;1.17;;;13.40;99.90;;;;;;5050437;28;20648;-75
2022/03/17 11:19:48;;;;;;;4.15;1.02;;;13.50;99.90;;;;;;5034189;28;20169;-75
2022/03/17 11:22:16;;;;;;;3.33;1.00;;;13.50;99.90;;;;;;5052029;28;20200;-77
2022/03/17 11:24:42;;;;;;;2.63;0.90;;;13.60;99.90;;;;;;5051861;28;20173;-78
2022/03/17 11:27:14;;;;;;;3.75;1.00;;;13.70;99.90;;;;;;5049847;28;20732;-76
2022/03/17 11:29:48;;;;;;;3.35;1.00;;;13.70;99.90;;;;;;5050290;28;20594;-75
2022/03/17 11:32:29;;;;;;;2.53;0.90;;;13.80;99.90;;;;;;5055823;28;20655;-75
2022/03/17 11:35:18;;;;;;;2.38;0.95;;;13.90;99.90;;;;;;5051615;28;20165;-75
2022/03/17 11:37:44;;;;;;;3.77;0.77;;;14.10;99.90;;;;;;5050491;28;20201;-77
2022/03/17 11:40:13;;;;;;;3.23;1.00;;;14.30;99.90;;;;;;5047201;28;20690;-75
2022/03/17 11:42:41;;;;;;;1.30;0.83;;;14.40;99.90;;;;;;5046041;28;20642;-75
2022/03/17 11:45:13;;;;;;;2.60;0.70;;;14.60;99.90;;;;;;5051448;28;20576;-76
2022/03/17 11:47:50;;;;;;;1.77;0.80;;;14.60;99.90;;;;;;5051371;28;20607;-75
2022/03/17 11:50:36;;;;;;;3.83;0.90;;;14.80;99.90;;;;;;5051335;28;21198;-78
2022/03/17 11:53:04;;;;;;;2.97;0.70;;;14.80;99.90;;;;;;5048637;28;20611;-78
2022/03/17 11:55:36;;;;;;;2.20;0.93;;;14.80;99.90;;;;;;5045634;28;20606;-78
2022/03/17 11:58:40;;;;;;;1.50;0.70;;;14.80;99.90;;;;;;5038929;28;20614;-78
2022/03/17 12:01:11;;;;;;;2.40;0.80;;;14.70;99.90;;;;;;5039219;28;20702;-77
2022/03/17 12:03:51;;;;;;;3.17;1.00;;;14.60;99.90;;;;;;5031929;28;20232;-78
2022/03/17 12:06:22;;;;;;;2.07;0.70;;;14.60;99.90;;;;;;5049891;28;20671;-78
2022/03/17 12:08:59;;;;;;;2.57;0.90;;;14.60;99.90;;;;;;5051028;28;20629;-77
2022/03/17 12:11:26;;;;;;;2.40;0.97;;;14.60;99.90;;;;;;5049891;28;20590;-78
2022/03/17 12:14:14;;;;;;;2.93;1.30;;;14.50;99.90;;;;;;5047209;28;20582;-77
2022/03/17 12:16:46;;;;;;;4.30;1.30;;;14.50;99.90;;;;;;5048879;28;20614;-78
2022/03/17 12:19:48;;;;;;;2.50;1.00;;;14.50;99.90;;;;;;5051294;28;20172;-77
2022/03/17 12:22:37;;;;;;;4.07;1.20;;;14.40;99.90;;;;;;5040472;28;20184;-77
2022/03/17 12:25:24;;;;;;;2.83;0.80;;;14.40;99.90;;;;;;5050820;28;20200;-77
2022/03/17 12:27:55;;;;;;;4.32;1.30;;;14.20;99.90;;;;;;5048084;28;20196;-77
2022/03/17 12:30:23;;;;;;;5.97;2.38;;;14.20;99.90;;;;;;5046094;28;20202;-77
2022/03/17 12:33:01;;;;;;;3.43;1.10;;;14.10;99.90;;;;;;5048417;28;20169;-77
2022/03/17 12:35:32;;;;;;;6.07;1.67;;;14.00;99.90;;;;;;5049738;28;20713;-75
2022/03/17 12:38:05;;;;;;;6.97;1.40;;;13.90;99.90;;;;;;5050665;28;20255;-74
2022/03/17 12:40:41;;;;;;;3.05;1.33;;;13.90;99.90;;;;;;5048474;28;20173;-75
2022/03/17 12:43:17;;;;;;;5.97;1.20;;;14.10;99.90;;;;;;5050383;28;20204;-74
2022/03/17 12:45:44;;;;;;;4.38;1.08;;;14.20;99.90;;;;;;5050381;28;20587;-75
2022/03/17 12:48:11;;;;;;;4.30;1.30;;;14.30;99.90;;;;;;5050787;28;20161;-74
2022/03/17 12:50:38;;;;;;;5.50;1.50;;;14.40;99.90;;;;;;5049453;28;20933;-78
2022/03/17 12:53:04;;;;;;;4.40;1.02;;;14.50;99.90;;;;;;5048552;28;20594;-77
2022/03/17 12:55:29;;;;;;;2.37;0.90;;;14.60;99.90;;;;;;5032801;28;20174;-77